Logo AVAMET
Benvolgut visitant, si us plau, ingressa Recuperar contrasenya

la Serra d′en Galceran el Collet

Dades diàries. Acumulats / Últims 30 dies disponibles

Data Temperatura (°C) Humitat rel. (%) Pressió rel. (hPa) Vent (km/h) Precipitació
Mínima Mitjana Màxima Amplitud
tèrmica
Mínima Mitjana Màxima Mínima Mitjana Màxima Predom. Mitjana Ràfega
màxima
Total
(mm)
Índex-n
Mínima Mitjana Màxima Mínima Mitjana Màxima n
0 a 1
P0 max
mm 5'
Dades mensuals acumulades fins l'últim dia disponible
07/2019 17,6 20,2 25,3 23,6 24,1 27,3 31,1 13,5   6,8 59,5 5,0
Dades anuals acumulades fins l'últim dia disponible
2019 -0,2 10,2 26,2 13,4 4,4 17,1 35,2 35,4   12,6 157,7 15,5
Últims 30 dies disponibles
20-07-2019 19,6     23,7     27,4 7,8 SSW 8,2 27,4 0,0
19-07-2019 19,8     22,6     25,9 6,1 SSW 6,3 30,6 0,0
18-07-2019 19,3     21,9     25,5 6,2 SSW 6,0 27,4 0,0
17-07-2019 17,6     21,7     25,8 8,2 SW 5,6 27,4 1,2
16-07-2019 17,9     20,8     24,7 6,8 SSW 9,3 32,2 0,0
15-07-2019 19,8     22,8     27,7 7,9 NNE 10,3 45,1 0,0
14-07-2019 19,7     21,5     24,2 4,5 NE 6,8 38,6 0,2
13-07-2019 19,7     25,0     28,8 9,1 ENE 4,5 25,7 0,0
12-07-2019 25,3     27,6     31,1 5,8 SSW 5,6 24,1 0,0
11-07-2019 22,8     25,6     29,7 6,9 SSW 6,1 29,0 0,0
10-07-2019 18,6     22,2     25,8 7,2 SSW 8,0 35,4 0,0
09-07-2019 17,8     20,9     24,8 7,0 NNE 14,5 59,5 0,4
08-07-2019 18,6     21,6     24,1 5,5 E 3,9 33,8 1,4
07-07-2019 18,8     26,3     30,2 11,4 SSW 8,0 40,2 1,8
06-07-2019 23,1     27,4     30,9 7,8 SSW 6,4 29,0 0,0
05-07-2019 20,1     23,6     27,4 7,3 SSW 4,8 27,4 0,0
04-07-2019 21,0     24,1     27,9 6,9 SSW 4,0 27,4 0,0
03-07-2019 21,1     23,8     27,1 6,0 SSW 5,8 33,8 0,0
02-07-2019 21,3     24,0     27,1 5,8 SSW 7,2 33,8 0,0
01-07-2019 21,8     25,5     29,4 7,6 ENE 4,2 24,1 0,0
29-06-2019 26,2     30,6     35,2 9,0 SSW 5,8 29,0 0,0
28-06-2019 24,2     29,3     33,9 9,7 SSW 5,0 25,7 0,0
27-06-2019 23,6     27,3     30,2 6,6 SSW 5,5 27,4 0,0
26-06-2019 19,6     23,6     26,3 6,7 ENE 8,0 37,0 0,0
25-06-2019 16,6     20,4     25,8 9,2 ENE 6,0 32,2 0,0
24-06-2019 18,6     22,1     25,3 6,7 ENE 5,3 33,8 0,0
23-06-2019 17,4     22,1     26,2 8,8 SSW 8,2 35,4 0,0
22-06-2019 14,6     18,4     22,4 7,8 SSW 6,0 30,6 0,0
21-06-2019 14,8     18,1     22,7 7,9 ENE 4,2 24,1 0,0
20-06-2019 15,8     20,3     23,0 7,2 ENE 4,8 43,5 0,0
Últims 13 mesos disponibles
06/2019 8,4 15,9 26,2 19,6 14,8 23,4 35,2 26,8 SSW 6,9 69,2
05/2019 6,3 10,8 16,4 14,3 11,7 18,2 23,6 17,3 NNE 12,6 95,0
04/2019 2,7 7,7 13,1 10,6 10,4 14,2 21,6 18,9 NNE 12,8 74,0
03/2019 3,3 8,3 15,2 11,7 10,7 15,9 22,1 18,8 NNE 12,6 120,7
02/2019 0,9 6,5 12,9 9,6 4,4 13,1 21,9 21,0 SSW 11,6 157,7
12/2017 -0,4 5,5 12,2 8,0 3,2 11,2 18,8 19,2 18,9 132,0 0,0
11/2017 1,7 8,0 15,2 10,7 6,8 14,0 19,7 18,0 19,6 115,9 1,2
10/2017 10,6 14,0 17,7 16,6 14,1 20,3 26,4 15,8 7,5 69,2 11,8
09/2017 9,4 14,7 18,3 17,7 16,3 21,7 28,2 18,8 7,9 95,0 19,2
08/2017 11,2 18,6 25,4 21,9 20,3 25,4 31,8 20,6 6,8 70,8 22,6
07/2017 11,3 18,5 22,2 21,8 20,1 25,6 29,2 17,9 7,5 77,2 0,0
06/2017 10,8 18,0 23,0 21,3 17,1 24,8 30,3 19,5 6,5 69,2 16,3
05/2017 6,1 13,0 19,2 16,3 14,1 19,8 25,6 19,5 6,5 70,8 4,8
Tots els anys disponibles
2017 -3,7 11,5 25,4 14,4 2,3 17,9 31,8 35,5 10,5 146,5 262,9
2016 -0,4 11,4 26,8 14,2 5,0 17,3 33,7 34,1 N 9,5 115,9 279,2
2015 0,9 13,9 26,5 16,7 6,4 19,8 34,4 33,5 N 7,6 91,7 316,7
Temperatura (°C)
Humitat relativa (%)
Velocitat del vent i ràfega màxima (km/h)
Direcció del vent (°)
Pressió (hPa)
Precipitació (mm)
Nota sobre les dades: s'avisa a l'usuari de la provisionalitat i no oficialitat d'aquestes dades
Logo AVAMET blanc
Web allotjada a Sollutia
Llicència de Creative CommonsLa web d'AVAMET i els seus continguts estan subjectes a una llicència de
Reconeixement - No Comercial - Compartir igual
Properes estacions: Altea - Club Nàutic d'Altea (Soci), Ares del Maestrat (Ajuntament Soci),      - - - - -      Últimes estacions: Catadau - Urb. Lloma Molina (Inforatge), Ontinyent - El Pilar (Soci), Asp - Poliesportiu (Soci) - - -